SLSB/SRJ METAR and TAF weather

Enter ICAO airport designator
Station Type Date Time Source
SLSB METAR 2021/05/07 14:00 UTC NOAA

SLSB 071400Z 17007KT 9999 FEW012 OVC080 17/14 Q1024


Station Type Date Time Source
SLSB Decoded METAR 2021/05/07 14:00 UTC NOAA

San Borja, Bolivia (SLSB) 14-52S 066-52W
May 07, 2021 - 10:00 AM EDT / 2021.05.07 1400 UTC
Wind: from the S (170 degrees) at 8 MPH (7 KT):0
Visibility: greater than 7 mile(s):0
Sky conditions: overcast
Temperature: 62 F (17 C)
Dew Point: 57 F (14 C)
Relative Humidity: 82%
Pressure (altimeter): 30.24 in. Hg (1024 hPa)
ob: SLSB 071400Z 17007KT 9999 FEW012 OVC080 17/14 Q1024
cycle: 14

Station Type Date Time Source
SLSB TAF UTC NOAA

Error!

Example: see airport list